• Join FlightAware (Why Join?)
  • Login
  • US Flag 
03:09PM EST


 

Airport Tracker/Info


-or-


 

Live Flight TrackerFlight Track Log ✈ RPA3253 ✈ 26-Jul-2013 ✈ KALB - KCLT

Flight Track Log - Related Links

Times and Time Zones

All times are in EDT time to prevent confusion due to time zone crossing. See the RPA3253 flight status page for this flight to view local times or setup timezone preferences in your user account.

Time Position Orientation Groundspeed Altitude Reporting Facility
EDT Latitude Longitude Course Direction KTS MPH feet Rate Location/Type
09:02PM 42.7653 -73.8089 180° South 138 159 1,400  Level Boston Center
09:03PM 42.8108 -73.8297 341° North 194 223 3,800 2,940 Climbing Boston Center
09:04PM 42.8542 -73.8675 327° Northwest 228 262 7,200 3,480 Climbing Boston Center
09:05PM 42.9119 -73.9200 326° Northwest 233 268 11,100 3,660 Climbing Boston Center
09:06PM 42.3857 -74.1955 170° South  Level Estimated
09:06PM 42.9717 -73.9725 327° Northwest 233 268 14,600  Level Boston Center
09:07PM 42.3129 -74.2737 180° South  Level Estimated
09:07PM 42.9872 -74.0467 286° West 223 257 17,000  Level Boston Center
09:08PM 42.9056 -74.0728 193° South 205 236 18,400 1,200 Climbing Boston Center
09:09PM 42.8122 -74.0419 166° South 302 348 19,500 1,680 Climbing Boston Center
09:10PM 42.6981 -73.9994 165° South 385 443 21,800 2,220 Climbing Boston Center
09:11PM 42.5750 -74.0217 188° South 398 458 24,000 1,860 Climbing Boston Center
09:12PM 42.4558 -74.0469 189° South 418 481 25,500 1,500 Climbing Boston Center
09:13PM 42.3281 -74.0744 189° South 439 505 27,000 1,800 Climbing Boston Center
09:14PM 42.2028 -74.1050 190° South 455 524 29,200 2,040 Climbing Boston Center
09:15PM 42.0794 -74.1325 189° South 455 524 31,200 1,920 Climbing Boston Center
09:16PM 41.9600 -74.1572 189° South 455 524 33,200 780 Climbing Boston Center
09:19PM 41.6569 -74.2167 188° South 444 511 34,000 180 Climbing New York Center
09:20PM 41.5228 -74.2456 189° South 453 521 34,000  Level New York Center
09:21PM 41.3947 -74.2778 191° South 453 521 34,000  Level New York Center
09:22PM 41.2800 -74.3600 208° Southwest 459 528 34,000  Level New York Center
09:23PM 41.1833 -74.4569 217° Southwest 452 520 34,000  Level New York Center
09:24PM 41.0822 -74.5561 216° Southwest 452 520 34,000  Level New York Center
09:25PM 40.9811 -74.6519 216° Southwest 452 520 34,000  Level New York Center
09:26PM 40.8822 -74.7481 216° Southwest 452 520 34,000  Level New York Center
09:27PM 40.7828 -74.8492 218° Southwest 452 520 34,000  Level New York Center
09:28PM 40.6836 -74.9444 216° Southwest 452 520 34,000  Level New York Center
09:29PM 40.5844 -75.0394 216° Southwest 452 520 34,000  Level New York Center
09:30PM 40.4872 -75.1344 217° Southwest 452 520 34,000  Level New York Center
09:31PM 40.3856 -75.2342 217° Southwest 452 520 34,000  Level New York Center
09:32PM 40.2858 -75.3311 217° Southwest 452 520 34,000  Level New York Center
09:33PM 40.1800 -75.4303 216° Southwest 457 526 34,000  Level New York Center
09:34PM 40.0781 -75.5292 217° Southwest 457 526 34,000  Level New York Center
09:35PM 39.9919 -75.6453 226° Southwest 457 526 34,000  Level New York Center
09:36PM 39.9097 -75.7667 229° Southwest 452 520 34,000  Level New York Center
09:37PM 39.8294 -75.8908 230° Southwest 452 520 34,000  Level New York Center
09:38PM 39.7447 -76.0114 228° Southwest 452 520 34,000  Level New York Center
09:39PM 39.6183 -76.2031 229° Southwest 439 505 34,000  Level Washington Center
09:40PM 39.5342 -76.3289 229° Southwest 449 517 34,000  Level Washington Center
09:41PM 39.4522 -76.4489 229° Southwest 460 529 34,000  Level Washington Center
09:42PM 39.3658 -76.5714 228° Southwest 466 536 34,000  Level Washington Center
09:43PM 39.2836 -76.6908 228° Southwest 461 531 34,000  Level Washington Center
09:44PM 39.2011 -76.8128 229° Southwest 461 531 34,000  Level Washington Center
09:45PM 39.1186 -76.9347 229° Southwest 456 525 34,000  Level Washington Center
09:46PM 39.0339 -77.0506 227° Southwest 456 525 34,000  Level Washington Center
09:47PM 38.9367 -77.1556 220° Southwest 456 525 34,000  Level Washington Center
09:48PM 38.8372 -77.2653 221° Southwest 461 531 34,000  Level Washington Center
09:49PM 38.7397 -77.3694 220° Southwest 466 536 34,000  Level Washington Center
09:50PM 38.6442 -77.4764 221° Southwest 466 536 34,000  Level Washington Center
09:51PM 38.5447 -77.5825 220° Southwest 466 536 34,000  Level Washington Center
09:52PM 38.4531 -77.6861 222° Southwest 461 531 34,000  Level Washington Center
09:53PM 38.3553 -77.7892 220° Southwest 461 531 34,000  Level Washington Center
09:54PM 38.2597 -77.8897 220° Southwest 461 531 34,000  Level Washington Center
09:55PM 38.1831 -77.9717 220° Southwest 461 531 34,000  Level Washington Center
09:56PM 38.0892 -78.0744 221° Southwest 461 531 34,000  Level Washington Center
09:57PM 37.9950 -78.1897 224° Southwest 456 525 34,000  Level Washington Center
09:58PM 37.9133 -78.3028 228° Southwest 441 507 34,000  Level Washington Center
09:59PM 37.8333 -78.4208 229° Southwest 441 507 34,000  Level Washington Center
10:00PM 37.7514 -78.5333 227° Southwest 441 507 34,000 -420 Level Washington Center
10:01PM 37.6628 -78.6611 229° Southwest 446 513 33,200 -840 Descending Washington Center
10:02PM 37.5803 -78.7783 228° Southwest 452 520 32,400 -600 Descending Washington Center
10:03PM 37.4978 -78.8953 228° Southwest 452 520 32,000 -420 Descending Washington Center
10:04PM 37.4153 -79.0119 228° Southwest 452 520 31,600 -660 Descending Washington Center
10:05PM 37.3306 -79.1283 228° Southwest 451 519 30,700 -960 Descending Washington Center
10:06PM 37.2525 -79.2292 226° Southwest 451 519 29,700 -960 Descending Washington Center
10:07PM 37.1517 -79.3208 216° Southwest 451 519 28,800 -900 Descending Washington Center
10:08PM 37.0444 -79.4094 213° Southwest 456 525 28,000 -420 Descending Washington Center
10:09PM 36.9417 -79.4978 214° Southwest 461 531 28,000  Level Washington Center
10:11PM 36.7169 -79.6753 212° Southwest 495 570 28,000  Level Atlanta Center
10:12PM 36.6117 -79.7636 214° Southwest 475 547 28,000 -600 Level Atlanta Center
10:13PM 36.5061 -79.8494 213° Southwest 465 535 26,800 -1,920 Descending Atlanta Center
10:14PM 36.4125 -79.9214 212° Southwest 451 519 24,200 -2,400 Descending Atlanta Center
10:15PM 36.3192 -80.0008 214° Southwest 433 498 22,100 -1,140 Descending Atlanta Center
10:16PM 36.2239 -80.0828 215° Southwest 427 491 22,000 -420 Descending Atlanta Center
10:17PM 36.1286 -80.1647 215° Southwest 422 486 21,300 -1,560 Descending Atlanta Center
10:18PM 36.0289 -80.2492 214° Southwest 412 474 18,900 -2,220 Descending Atlanta Center
10:19PM 35.9517 -80.3167 215° Southwest 400 460 17,300 -1,920 Descending Atlanta Center
10:20PM 35.8725 -80.3844 215° Southwest 324 373 15,400 -1,980 Descending Atlanta Center
10:21PM 35.7992 -80.4467 215° Southwest 324 373 13,100 -1,980 Descending Atlanta Center
10:22PM 35.7383 -80.5108 221° Southwest 298 343 11,200 -2,100 Descending Atlanta Center
10:23PM 35.6906 -80.5894 233° Southwest 285 328 9,000 -2,100 Descending Atlanta Center
10:24PM 35.6425 -80.6631 231° Southwest 291 335 7,100 -1,860 Descending Atlanta Center
10:25PM 35.5967 -80.7389 233° Southwest 286 329 5,300 -1,560 Descending Atlanta Center
10:26PM 35.5508 -80.8175 234° Southwest 274 315 4,000 -660 Descending Atlanta Center
10:27PM 35.5089 -80.8881 234° Southwest 264 304 4,000  Level Atlanta Center
10:28PM 35.4581 -80.9408 220° Southwest 256 295 4,000 -300 Level Atlanta Center
10:30PM 35.3711 -80.9697 195° South 228 262 3,300 -660 Descending Atlanta Center
10:30PM 35.3256 -80.9789 189° South 168 193 2,600 -780 Descending Atlanta Center
10:32PM 35.2817 -80.9756 176° South 133 153 1,800 -660 Descending Atlanta Center
10:33PM 35.2461 -80.9717 175° South 109 125 1,200 -540 Descending Atlanta Center